Time;durP1;ratioP1;P1;durP2;ratioP2;P2;SDS_P1;SDS_P2;PMS_P1;PMS_P2;Temp;Humidity;BMP_temperature;BMP_pressure;BME280_temperature;BME280_humidity;BME280_pressure;Samples;Min_cycle;Max_cycle;Signal;HPM_P1;HPM_P2
2023/02/08 00:02:25;;;;;;;17.17;7.57;;;;;;;;;;4967272;28;20081;-75
2023/02/08 00:04:59;;;;;;;15.98;7.07;;;;;;;;;;4973055;28;20060;-71
2023/02/08 00:07:28;;;;;;;16.58;6.63;;;;;;;;;;4982771;28;20049;-66
2023/02/08 00:09:55;;;;;;;;;;;;;;;;;;4986628;28;20059;-73
2023/02/08 00:12:24;;;;;;;15.52;7.30;;;;;;;;;;4961732;28;19925;-73
2023/02/08 00:14:51;;;;;;;16.50;7.63;;;;;;;;;;4957476;28;20061;-68
2023/02/08 00:17:17;;;;;;;17.48;7.85;;;;;;;;;;5022356;28;20058;-71
2023/02/08 00:19:45;;;;;;;19.90;7.57;;;;;;;;;;4954299;28;20137;-72
2023/02/08 00:27:27;;;;;;;18.83;7.38;;;;;;;;;;5014364;27;20523;-70
2023/02/08 00:29:56;;;;;;;16.83;7.07;;;;;;;;;;4965430;28;20052;-70
2023/02/08 00:32:29;;;;;;;15.95;7.43;;;;;;;;;;4988432;28;20141;-72
2023/02/08 00:35:06;;;;;;;16.30;7.72;;;;;;;;;;4917012;28;20066;-70
2023/02/08 00:37:34;;;;;;;17.77;7.22;;;;;;;;;;4910116;28;20149;-69
2023/02/08 00:40:08;;;;;;;18.63;7.43;;;;;;;;;;4918720;28;20112;-72
2023/02/08 00:42:39;;;;;;;14.57;6.97;;;;;;;;;;4891470;28;20221;-70
2023/02/08 00:45:06;;;;;;;20.50;8.77;;;;;;;;;;4941503;28;20139;-74
2023/02/08 00:47:32;;;;;;;15.15;7.10;;;;;;;;;;4959551;28;20094;-70
2023/02/08 00:49:59;;;;;;;15.98;7.20;;;;;;;;;;4988658;28;20064;-70
2023/02/08 00:52:39;;;;;;;15.95;7.20;;;;;;;;;;4898786;28;20056;-70
2023/02/08 00:58:05;;;;;;;15.00;7.18;;;;;;;;;;5060275;27;20136;-70
2023/02/08 01:00:36;;;;;;;17.55;7.07;;;;;;;;;;5033736;28;20209;-69
2023/02/08 01:03:03;;;;;;;14.52;6.85;;;;;;;;;;4982140;28;20088;-74
2023/02/08 01:05:36;;;;;;;16.23;6.88;;;;;;;;;;5021426;28;20099;-70
2023/02/08 01:08:05;;;;;;;13.32;6.82;;;;;;;;;;4996958;28;20072;-74
2023/02/08 01:10:32;;;;;;;13.75;6.30;;;;;;;;;;4997710;28;20057;-71
2023/02/08 01:13:03;;;;;;;16.45;7.10;;;;;;;;;;5017516;28;20056;-74
2023/02/08 01:15:31;;;;;;;15.18;6.90;;;;;;;;;;4999625;28;20058;-69
2023/02/08 01:17:58;;;;;;;14.98;6.45;;;;;;;;;;4996354;28;20135;-73
2023/02/08 01:20:25;;;;;;;17.55;6.97;;;;;;;;;;5014501;28;20114;-70
2023/02/08 01:23:07;;;;;;;15.30;6.88;;;;;;;;;;4975367;28;20075;-70
2023/02/08 01:28:08;;;;;;;16.58;6.75;;;;;;;;;;4902788;28;20050;-67
2023/02/08 01:30:36;;;;;;;16.02;6.90;;;;;;;;;;4959174;28;20049;-68
2023/02/08 01:33:03;;;;;;;16.45;6.72;;;;;;;;;;4970218;28;20066;-71
2023/02/08 01:35:30;;;;;;;16.55;7.07;;;;;;;;;;4985665;28;20088;-69
2023/02/08 01:37:59;;;;;;;17.13;6.90;;;;;;;;;;4982408;28;20053;-70
2023/02/08 01:40:42;;;;;;;16.67;7.10;;;;;;;;;;4985869;28;20121;-75
2023/02/08 01:43:16;;;;;;;14.80;6.18;;;;;;;;;;5017406;28;20060;-69
2023/02/08 01:45:44;;;;;;;15.65;6.85;;;;;;;;;;4958661;28;20052;-73
2023/02/08 01:48:16;;;;;;;14.27;6.35;;;;;;;;;;4986518;28;20045;-67
2023/02/08 01:50:48;;;;;;;16.88;6.90;;;;;;;;;;4959026;28;20057;-67
2023/02/08 01:53:17;;;;;;;16.17;6.80;;;;;;;;;;4954878;28;20053;-72
2023/02/08 01:55:49;;;;;;;14.55;6.22;;;;;;;;;;4968348;28;20061;-70
2023/02/08 01:58:24;;;;;;;14.38;6.40;;;;;;;;;;5017494;28;20276;-69
2023/02/08 02:00:55;;;;;;;17.23;7.38;;;;;;;;;;5017439;28;20103;-70
2023/02/08 02:03:23;;;;;;;16.77;7.35;;;;;;;;;;5011847;28;20100;-66
2023/02/08 02:05:58;;;;;;;16.83;7.63;;;;;;;;;;5009291;28;20057;-69
2023/02/08 02:08:25;;;;;;;15.50;6.80;;;;;;;;;;4989065;28;20218;-71
2023/02/08 02:10:55;;;;;;;17.98;6.55;;;;;;;;;;5012347;28;20144;-69
2023/02/08 02:13:24;;;;;;;18.88;7.68;;;;;;;;;;4982330;28;20053;-71
2023/02/08 02:15:55;;;;;;;17.67;7.18;;;;;;;;;;4986443;28;20057;-69
2023/02/08 02:18:27;;;;;;;15.93;6.82;;;;;;;;;;5001468;28;20076;-72
2023/02/08 02:21:03;;;;;;;16.20;7.30;;;;;;;;;;5013623;28;20053;-73
2023/02/08 02:23:50;;;;;;;15.75;7.28;;;;;;;;;;4980214;28;20053;-75
2023/02/08 02:26:38;;;;;;;16.90;6.82;;;;;;;;;;5004869;28;20164;-74
2023/02/08 02:29:19;;;;;;;14.27;6.95;;;;;;;;;;5008069;28;20060;-68
2023/02/08 02:32:11;;;;;;;17.77;7.53;;;;;;;;;;5007209;28;20088;-69
2023/02/08 02:34:42;;;;;;;16.30;7.15;;;;;;;;;;4987636;28;20061;-71
2023/02/08 02:37:18;;;;;;;17.35;7.05;;;;;;;;;;4953792;28;20114;-71
2023/02/08 02:44:58;;;;;;;19.25;6.95;;;;;;;;;;4954337;28;20053;-69
2023/02/08 02:47:31;;;;;;;20.98;6.80;;;;;;;;;;4938089;28;20086;-74
2023/02/08 02:50:02;;;;;;;17.65;7.15;;;;;;;;;;4933096;28;20055;-72
2023/02/08 02:52:34;;;;;;;16.52;7.03;;;;;;;;;;4899656;28;20046;-70
2023/02/08 02:55:03;;;;;;;15.32;7.07;;;;;;;;;;4936000;28;20137;-69
2023/02/08 02:57:32;;;;;;;17.52;7.10;;;;;;;;;;4968042;28;20057;-68
2023/02/08 02:59:59;;;;;;;13.65;6.22;;;;;;;;;;5001874;28;20053;-73
2023/02/08 03:02:27;;;;;;;15.82;6.53;;;;;;;;;;4913070;28;20046;-72
2023/02/08 03:04:54;;;;;;;17.20;7.30;;;;;;;;;;4986817;28;20057;-74
2023/02/08 03:07:31;;;;;;;13.98;6.45;;;;;;;;;;5008736;28;20049;-71
2023/02/08 03:10:08;;;;;;;14.25;6.30;;;;;;;;;;5007892;28;20367;-72
2023/02/08 03:12:40;;;;;;;14.43;6.30;;;;;;;;;;4973475;28;20395;-71
2023/02/08 03:15:14;;;;;;;18.35;6.65;;;;;;;;;;4976138;28;20165;-67
2023/02/08 03:17:48;;;;;;;15.23;7.22;;;;;;;;;;5017632;28;20143;-71
2023/02/08 03:20:19;;;;;;;14.40;6.43;;;;;;;;;;4994962;28;20054;-71
2023/02/08 03:22:57;;;;;;;15.70;6.50;;;;;;;;;;4959163;28;20055;-69
2023/02/08 03:25:30;;;;;;;13.45;6.07;;;;;;;;;;5019419;28;20056;-68
2023/02/08 03:28:01;;;;;;;15.35;7.07;;;;;;;;;;5007369;28;20243;-71
2023/02/08 03:30:30;;;;;;;14.70;6.35;;;;;;;;;;5012347;28;20049;-68
2023/02/08 03:33:02;;;;;;;15.48;6.80;;;;;;;;;;4970092;28;20049;-67
2023/02/08 03:35:38;;;;;;;12.00;6.38;;;;;;;;;;5011590;28;20120;-69
2023/02/08 03:38:10;;;;;;;15.23;6.53;;;;;;;;;;4985958;28;21250;-71
2023/02/08 03:40:37;;;;;;;15.00;6.88;;;;;;;;;;5008730;28;20063;-72
2023/02/08 03:43:09;;;;;;;15.70;6.53;;;;;;;;;;4970079;28;20056;-70
2023/02/08 03:45:37;;;;;;;12.93;6.18;;;;;;;;;;4990029;28;20055;-75
2023/02/08 03:48:08;;;;;;;14.80;6.75;;;;;;;;;;5012789;28;20080;-72
2023/02/08 03:50:45;;;;;;;15.95;7.10;;;;;;;;;;5006437;28;20057;-75
2023/02/08 03:53:18;;;;;;;12.93;6.30;;;;;;;;;;4965082;28;20056;-72
2023/02/08 03:55:56;;;;;;;15.52;6.75;;;;;;;;;;4986368;28;20060;-73
2023/02/08 03:58:24;;;;;;;14.73;6.50;;;;;;;;;;4990476;28;20132;-69
2023/02/08 04:00:55;;;;;;;17.17;7.07;;;;;;;;;;4992995;28;20053;-70
2023/02/08 04:03:24;;;;;;;16.17;6.75;;;;;;;;;;4971769;28;20057;-66
2023/02/08 04:05:50;;;;;;;14.80;6.55;;;;;;;;;;5003197;28;20057;-70
2023/02/08 04:08:18;;;;;;;16.40;6.80;;;;;;;;;;5015162;28;20068;-66
2023/02/08 04:10:45;;;;;;;12.30;6.40;;;;;;;;;;5015950;28;20049;-68
2023/02/08 04:13:12;;;;;;;13.63;6.50;;;;;;;;;;4958106;28;20109;-69
2023/02/08 04:15:43;;;;;;;21.15;7.03;;;;;;;;;;4989149;28;20275;-72
2023/02/08 04:18:13;;;;;;;16.20;7.07;;;;;;;;;;5010340;28;20088;-71
2023/02/08 04:20:42;;;;;;;13.80;6.65;;;;;;;;;;4999352;28;20057;-69
2023/02/08 04:23:08;;;;;;;15.30;6.55;;;;;;;;;;4944696;28;20130;-71
2023/02/08 04:25:42;;;;;;;13.30;6.30;;;;;;;;;;5006203;28;20065;-70
2023/02/08 04:28:12;;;;;;;14.77;6.55;;;;;;;;;;5008445;28;20061;-68
2023/02/08 04:30:45;;;;;;;14.23;6.88;;;;;;;;;;4992218;28;20057;-67
2023/02/08 04:33:13;;;;;;;17.15;7.13;;;;;;;;;;4981499;28;20076;-73
2023/02/08 04:35:44;;;;;;;16.77;6.55;;;;;;;;;;4979477;28;20057;-72
2023/02/08 04:38:12;;;;;;;14.68;6.47;;;;;;;;;;5018787;28;20147;-68
2023/02/08 04:40:43;;;;;;;14.73;6.45;;;;;;;;;;5008383;28;20120;-69
2023/02/08 04:43:10;;;;;;;13.32;6.13;;;;;;;;;;4981983;28;20045;-70
2023/02/08 04:45:39;;;;;;;;;;;;;;;;;;5000845;28;20056;-72
2023/02/08 04:48:11;;;;;;;13.40;6.28;;;;;;;;;;5012086;28;19924;-75
2023/02/08 04:50:38;;;;;;;16.92;6.20;;;;;;;;;;5001192;28;20053;-69
2023/02/08 04:53:06;;;;;;;15.73;6.72;;;;;;;;;;5009992;28;20149;-71
2023/02/08 04:55:40;;;;;;;15.45;7.05;;;;;;;;;;5002524;28;20057;-72
2023/02/08 04:58:11;;;;;;;17.85;7.22;;;;;;;;;;5014458;28;20053;-68
2023/02/08 05:00:38;;;;;;;13.13;5.80;;;;;;;;;;5008005;28;20064;-69
2023/02/08 05:03:05;;;;;;;17.15;6.53;;;;;;;;;;4950365;28;20119;-68
2023/02/08 05:05:38;;;;;;;15.35;6.53;;;;;;;;;;4956539;28;21080;-72
2023/02/08 05:13:16;;;;;;;14.10;6.57;;;;;;;;;;4973427;27;20446;-70
2023/02/08 05:15:49;;;;;;;12.90;6.10;;;;;;;;;;4936812;28;20081;-71
2023/02/08 05:18:16;;;;;;;14.23;6.35;;;;;;;;;;4963344;28;20283;-71
2023/02/08 05:20:42;;;;;;;14.70;6.70;;;;;;;;;;4946960;28;20078;-70
2023/02/08 05:23:12;;;;;;;13.90;6.28;;;;;;;;;;4951023;28;20125;-70
2023/02/08 05:25:45;;;;;;;14.88;7.00;;;;;;;;;;4938938;28;20046;-75
2023/02/08 05:28:25;;;;;;;17.48;6.80;;;;;;;;;;4893890;28;20127;-70
2023/02/08 05:36:22;;;;;;;15.98;6.55;;;;;;;;;;4925504;27;4201961;-75
2023/02/08 05:38:52;;;;;;;15.23;6.68;;;;;;;;;;4952918;28;20049;-72
2023/02/08 05:41:19;;;;;;;15.73;6.30;;;;;;;;;;4954776;28;20110;-73
2023/02/08 05:43:45;;;;;;;14.80;6.43;;;;;;;;;;4941030;28;20137;-73
2023/02/08 05:46:12;;;;;;;15.00;6.78;;;;;;;;;;4976009;28;20046;-74
2023/02/08 05:48:41;;;;;;;16.90;7.03;;;;;;;;;;4953803;28;20181;-73
2023/02/08 05:51:09;;;;;;;15.13;6.38;;;;;;;;;;4930168;28;20129;-72
2023/02/08 05:56:07;;;;;;;;;;;;;;;;;;4853575;29;20058;-72
2023/02/08 05:58:35;;;;;;;13.05;5.53;;;;;;;;;;4909668;28;19926;-75
2023/02/08 06:01:18;;;;;;;14.85;6.65;;;;;;;;;;4908521;28;20142;-73
2023/02/08 06:03:50;;;;;;;15.43;6.35;;;;;;;;;;4825880;28;20060;-72
2023/02/08 06:06:23;;;;;;;19.13;7.20;;;;;;;;;;4896579;28;20061;-72
2023/02/08 06:09:04;;;;;;;14.38;6.40;;;;;;;;;;4936647;28;20137;-71
2023/02/08 06:11:44;;;;;;;17.02;7.88;;;;;;;;;;4936446;28;20167;-73
2023/02/08 06:14:23;;;;;;;13.10;6.40;;;;;;;;;;4915131;28;20054;-74
2023/02/08 06:16:57;;;;;;;17.38;6.47;;;;;;;;;;4960780;28;20053;-71
2023/02/08 06:19:35;;;;;;;14.45;5.78;;;;;;;;;;4937345;28;20059;-70
2023/02/08 06:22:04;;;;;;;16.52;6.55;;;;;;;;;;4960993;28;20062;-72
2023/02/08 06:24:32;;;;;;;16.48;7.00;;;;;;;;;;4888266;28;20055;-75
2023/02/08 06:27:11;;;;;;;17.67;6.88;;;;;;;;;;4878518;29;20060;-73
2023/02/08 06:29:44;;;;;;;15.68;6.78;;;;;;;;;;4903220;28;20142;-72
2023/02/08 06:32:11;;;;;;;15.23;7.10;;;;;;;;;;4895952;28;20066;-73
2023/02/08 06:34:38;;;;;;;14.23;6.63;;;;;;;;;;4887300;28;20316;-71
2023/02/08 06:37:11;;;;;;;14.13;6.45;;;;;;;;;;4924539;28;20058;-72
2023/02/08 06:47:19;;;;;;;15.68;6.63;;;;;;;;;;4848205;29;20063;-73
2023/02/08 06:49:45;;;;;;;16.60;7.60;;;;;;;;;;4859399;29;20072;-71
2023/02/08 06:52:12;;;;;;;16.55;6.97;;;;;;;;;;4912280;28;20141;-73
2023/02/08 06:54:41;;;;;;;19.20;7.18;;;;;;;;;;4890020;28;20060;-72
2023/02/08 06:57:11;;;;;;;17.25;6.68;;;;;;;;;;4949798;28;20165;-70
2023/02/08 06:59:57;;;;;;;16.15;6.88;;;;;;;;;;4919563;28;20121;-71
2023/02/08 07:02:26;;;;;;;17.55;6.25;;;;;;;;;;4871266;29;20092;-71
2023/02/08 07:10:12;;;;;;;14.48;6.80;;;;;;;;;;5025044;27;20416;-72
2023/02/08 07:12:41;;;;;;;16.85;6.50;;;;;;;;;;4985465;28;20140;-69
2023/02/08 07:15:16;;;;;;;20.95;6.93;;;;;;;;;;4942025;28;20059;-71
2023/02/08 07:18:09;;;;;;;14.48;6.35;;;;;;;;;;4991081;28;20049;-71
2023/02/08 07:20:40;;;;;;;21.60;7.22;;;;;;;;;;4893033;29;20060;-70
2023/02/08 07:28:48;;;;;;;16.27;6.75;;;;;;;;;;4869024;29;20107;-69
2023/02/08 07:36:52;;;;;;;15.50;6.53;;;;;;;;;;5093569;27;20458;-72
2023/02/08 08:14:55;;;;;;;15.40;6.57;;;;;;;;;;4967568;28;20909;-74
2023/02/08 08:17:26;;;;;;;15.07;6.70;;;;;;;;;;4938890;28;20171;-74
2023/02/08 08:20:11;;;;;;;;;;;;;;;;;;4904115;28;20056;-74
2023/02/08 08:28:26;;;;;;;14.75;6.07;;;;;;;;;;5010647;27;20397;-72
2023/02/08 08:31:01;;;;;;;16.60;6.38;;;;;;;;;;4977460;28;20077;-76
2023/02/08 08:33:30;;;;;;;15.35;6.68;;;;;;;;;;4952408;28;20054;-74
2023/02/08 08:36:00;;;;;;;15.15;6.65;;;;;;;;;;4855664;28;31198;-71
2023/02/08 08:59:24;;;;;;;14.98;6.15;;;;;;;;;;5014451;27;20427;-72
2023/02/08 09:08:28;;;;;;;13.32;6.10;;;;;;;;;;4973386;27;20507;-74
2023/02/08 09:19:04;;;;;;;13.88;6.47;;;;;;;;;;4889653;27;5123323;-78
2023/02/08 09:21:43;;;;;;;15.23;6.13;;;;;;;;;;4970787;28;20072;-74
2023/02/08 09:24:11;;;;;;;19.88;6.57;;;;;;;;;;4921229;28;20062;-68
2023/02/08 09:26:45;;;;;;;20.05;7.25;;;;;;;;;;4884805;28;20055;-71
2023/02/08 09:29:38;;;;;;;16.30;6.65;;;;;;;;;;4914364;28;20059;-75
2023/02/08 09:32:09;;;;;;;15.50;6.75;;;;;;;;;;4905277;28;20058;-76
2023/02/08 09:39:35;;;;;;;16.55;6.35;;;;;;;;;;4817226;29;20056;-72
2023/02/08 09:42:19;;;;;;;17.08;6.88;;;;;;;;;;4888948;29;20274;-69
2023/02/08 09:50:13;;;;;;;17.33;6.97;;;;;;;;;;5067571;27;20411;-67
2023/02/08 09:52:43;;;;;;;17.63;6.72;;;;;;;;;;4988480;28;20044;-70
2023/02/08 09:55:22;;;;;;;14.00;6.40;;;;;;;;;;4999929;28;20136;-70
2023/02/08 09:57:53;;;;;;;12.60;5.90;;;;;;;;;;4976403;28;20167;-73
2023/02/08 10:21:24;;;;;;;14.70;6.05;;;;;;;;;;4918130;27;2692980;-71
2023/02/08 10:24:09;;;;;;;17.45;6.85;;;;;;;;;;4994768;28;20052;-69
2023/02/08 10:42:18;;;;;;;13.93;5.72;;;;;;;;;;5788215;22;6589789;-75
2023/02/08 10:55:15;;;;;;;14.75;5.93;;;;;;;;;;5011509;28;20509;-71
2023/02/08 10:57:58;;;;;;;16.67;6.38;;;;;;;;;;4914864;28;20055;-71
2023/02/08 11:00:32;;;;;;;16.02;6.93;;;;;;;;;;4857707;29;20221;-70
2023/02/08 11:03:11;;;;;;;12.55;5.63;;;;;;;;;;4894122;29;20051;-69
2023/02/08 11:05:39;;;;;;;14.60;6.00;;;;;;;;;;4869681;28;20103;-71
2023/02/08 11:08:07;;;;;;;16.05;6.70;;;;;;;;;;4909177;28;20066;-72
2023/02/08 11:10:46;;;;;;;15.23;6.10;;;;;;;;;;4864585;28;20063;-68
2023/02/08 11:13:33;;;;;;;15.75;5.57;;;;;;;;;;4894742;28;20135;-74
2023/02/08 11:16:14;;;;;;;14.52;6.40;;;;;;;;;;4938163;28;20236;-75
2023/02/08 11:18:48;;;;;;;13.85;5.50;;;;;;;;;;4925081;28;20066;-67
2023/02/08 11:21:32;;;;;;;18.83;7.00;;;;;;;;;;4953967;28;20049;-72
2023/02/08 11:24:00;;;;;;;14.15;5.90;;;;;;;;;;4910278;28;20153;-73
2023/02/08 11:26:32;;;;;;;16.58;5.80;;;;;;;;;;4812452;28;20044;-72
2023/02/08 11:29:00;;;;;;;12.85;5.88;;;;;;;;;;4876465;29;20207;-71
2023/02/08 11:31:29;;;;;;;16.55;5.80;;;;;;;;;;4883654;28;20095;-70
2023/02/08 11:34:00;;;;;;;16.10;5.95;;;;;;;;;;4895894;29;20047;-73
2023/02/08 11:36:30;;;;;;;12.85;5.82;;;;;;;;;;4877912;28;20070;-71
2023/02/08 11:39:22;;;;;;;17.00;6.38;;;;;;;;;;4954043;28;20122;-71
2023/02/08 11:42:00;;;;;;;14.02;5.80;;;;;;;;;;4909376;28;20064;-77
2023/02/08 11:44:34;;;;;;;13.68;5.97;;;;;;;;;;4912203;28;20047;-70
2023/02/08 11:50:01;;;;;;;14.68;6.30;;;;;;;;;;4984346;28;20449;-70
2023/02/08 12:00:32;;;;;;;14.82;6.03;;;;;;;;;;4975510;28;20460;-74
2023/02/08 12:03:02;;;;;;;11.82;5.28;;;;;;;;;;4962235;28;20187;-76
2023/02/08 12:05:40;;;;;;;14.20;6.00;;;;;;;;;;4956136;28;20109;-80
2023/02/08 12:08:16;;;;;;;17.20;5.38;;;;;;;;;;4948634;28;20069;-76
2023/02/08 12:10:57;;;;;;;14.27;5.40;;;;;;;;;;4922464;28;20062;-74
2023/02/08 12:13:35;;;;;;;14.23;6.05;;;;;;;;;;4917958;28;20051;-76
2023/02/08 12:16:12;;;;;;;14.80;5.90;;;;;;;;;;4867327;29;20170;-70
2023/02/08 12:18:55;;;;;;;10.57;5.15;;;;;;;;;;4899922;28;20051;-69
2023/02/08 12:21:34;;;;;;;18.17;5.43;;;;;;;;;;4886791;28;20235;-74
2023/02/08 12:24:03;;;;;;;14.35;5.32;;;;;;;;;;4939049;28;20055;-67
2023/02/08 12:34:12;;;;;;;13.82;5.10;;;;;;;;;;4876362;28;20046;-76
2023/02/08 12:52:18;;;;;;;8.98;4.18;;;;;;;;;;5036058;27;20468;-73
2023/02/08 13:05:15;;;;;;;12.50;4.03;;;;;;;;;;5100093;27;20418;-70
2023/02/08 13:07:49;;;;;;;9.68;3.83;;;;;;;;;;4991470;28;20130;-69
2023/02/08 13:10:25;;;;;;;10.10;4.00;;;;;;;;;;5012211;28;20052;-71
2023/02/08 13:12:58;;;;;;;8.40;3.75;;;;;;;;;;5016785;28;20046;-71
2023/02/08 13:15:33;;;;;;;9.70;3.17;;;;;;;;;;4948328;28;20135;-71
2023/02/08 13:18:05;;;;;;;10.65;4.30;;;;;;;;;;5023808;28;20127;-73
2023/02/08 13:20:44;;;;;;;10.73;4.20;;;;;;;;;;5023881;28;20057;-70
2023/02/08 13:23:39;;;;;;;13.45;3.53;;;;;;;;;;4996101;28;20049;-66
2023/02/08 13:29:03;;;;;;;10.20;3.85;;;;;;;;;;4993910;27;20930;-75
2023/02/08 13:31:45;;;;;;;9.73;3.75;;;;;;;;;;4934490;28;20605;-71
2023/02/08 13:50:20;;;;;;;8.70;2.83;;;;;;;;;;6154423;22;20448;-71
2023/02/08 13:58:36;;;;;;;7.95;2.83;;;;;;;;;;4912920;28;20526;-72
2023/02/08 14:01:18;;;;;;;9.13;3.58;;;;;;;;;;4894451;28;20050;-72
2023/02/08 14:04:08;;;;;;;6.53;2.63;;;;;;;;;;4907866;28;20272;-67
2023/02/08 14:06:49;;;;;;;5.75;2.65;;;;;;;;;;4892839;28;20068;-74
2023/02/08 14:15:49;;;;;;;10.27;3.15;;;;;;;;;;5066968;28;20404;-74
2023/02/08 14:23:43;;;;;;;9.07;2.88;;;;;;;;;;5053046;27;20461;-79
2023/02/08 14:26:19;;;;;;;8.13;2.78;;;;;;;;;;4953093;28;20053;-74
2023/02/08 14:28:55;;;;;;;6.18;2.83;;;;;;;;;;4982500;28;20048;-76
2023/02/08 14:31:39;;;;;;;6.63;2.50;;;;;;;;;;4985149;28;20088;-74
2023/02/08 14:34:06;;;;;;;6.68;2.80;;;;;;;;;;5002958;28;20115;-80
2023/02/08 14:44:52;;;;;;;5.95;2.65;;;;;;;;;;5068221;27;20482;-77
2023/02/08 14:47:38;;;;;;;6.90;2.80;;;;;;;;;;4969687;28;20082;-79
2023/02/08 14:50:21;;;;;;;6.50;2.70;;;;;;;;;;4975703;28;20053;-72
2023/02/08 14:53:12;;;;;;;8.68;3.05;;;;;;;;;;4976275;28;20049;-79
2023/02/08 14:58:34;;;;;;;6.88;2.70;;;;;;;;;;4925277;28;20046;-73
2023/02/08 15:01:06;;;;;;;6.38;2.42;;;;;;;;;;4921756;28;20050;-79
2023/02/08 15:12:00;;;;;;;7.47;3.22;;;;;;;;;;5040240;27;20444;-79
2023/02/08 15:14:36;;;;;;;7.88;2.60;;;;;;;;;;4979847;28;20057;-82
2023/02/08 15:19:37;;;;;;;5.88;2.78;;;;;;;;;;4942439;28;20143;-75
2023/02/08 15:22:20;;;;;;;5.80;2.67;;;;;;;;;;4957508;28;20050;-76
2023/02/08 15:25:04;;;;;;;6.63;2.60;;;;;;;;;;4993251;28;20110;-69
2023/02/08 15:30:42;;;;;;;8.23;2.88;;;;;;;;;;5050414;27;20723;-72
2023/02/08 15:33:19;;;;;;;7.05;2.50;;;;;;;;;;4913450;28;20068;-72
2023/02/08 15:35:56;;;;;;;6.50;2.72;;;;;;;;;;4913703;28;20058;-77
2023/02/08 15:41:33;;;;;;;9.80;3.17;;;;;;;;;;5020307;27;20447;-76
2023/02/08 15:44:15;;;;;;;7.47;2.85;;;;;;;;;;4896592;28;20299;-75
2023/02/08 15:50:19;;;;;;;5.68;2.35;;;;;;;;;;5005897;28;20457;-73
2023/02/08 15:53:07;;;;;;;8.35;2.88;;;;;;;;;;4954679;28;20055;-69
2023/02/08 15:55:39;;;;;;;6.97;3.08;;;;;;;;;;4951658;28;20200;-74
2023/02/08 15:58:19;;;;;;;7.00;2.90;;;;;;;;;;4904708;28;20086;-75
2023/02/08 16:00:58;;;;;;;;;;;;;;;;;;;;;
2023/02/08 16:03:46;;;;;;;10.48;3.08;;;;;;;;;;4927424;28;20059;-72
2023/02/08 16:13:48;;;;;;;6.75;2.85;;;;;;;;;;4814595;29;20053;-70
2023/02/08 16:16:18;;;;;;;7.78;3.08;;;;;;;;;;4848247;29;20056;-72
2023/02/08 16:21:54;;;;;;;7.70;2.95;;;;;;;;;;4979802;28;20512;-74
2023/02/08 16:24:30;;;;;;;9.80;3.30;;;;;;;;;;4983328;28;20175;-71
2023/02/08 16:27:06;;;;;;;8.90;2.88;;;;;;;;;;4934450;28;20055;-70
2023/02/08 16:29:40;;;;;;;9.25;2.90;;;;;;;;;;4830695;29;20060;-71
2023/02/08 16:32:17;;;;;;;8.73;3.50;;;;;;;;;;4864227;29;20070;-69
2023/02/08 16:34:46;;;;;;;7.55;3.00;;;;;;;;;;4884549;29;20055;-71
2023/02/08 16:37:31;;;;;;;8.07;2.95;;;;;;;;;;4888038;29;20159;-70
2023/02/08 16:40:09;;;;;;;7.05;2.83;;;;;;;;;;4848535;29;20101;-71
2023/02/08 16:42:50;;;;;;;;;;;;;;;;;;;;;
2023/02/08 16:48:24;;;;;;;7.93;3.03;;;;;;;;;;4866897;28;20052;-70
2023/02/08 16:53:33;;;;;;;5.40;2.65;;;;;;;;;;4882793;28;20052;-70
2023/02/08 16:56:07;;;;;;;7.72;2.92;;;;;;;;;;4918958;28;20063;-69
2023/02/08 17:03:48;;;;;;;6.18;2.53;;;;;;;;;;4874603;28;20146;-73
2023/02/08 17:06:33;;;;;;;5.93;2.65;;;;;;;;;;4887973;28;20060;-72
2023/02/08 17:12:08;;;;;;;5.68;2.50;;;;;;;;;;5018229;27;20428;-67
2023/02/08 17:14:37;;;;;;;8.15;3.00;;;;;;;;;;4973014;28;20068;-71
2023/02/08 17:17:14;;;;;;;6.35;2.67;;;;;;;;;;4949924;28;20058;-70
2023/02/08 17:27:34;;;;;;;7.10;2.92;;;;;;;;;;4975071;28;20471;-69
2023/02/08 17:30:16;;;;;;;;;;;;;;;;;;;;;
2023/02/08 17:32:57;;;;;;;9.45;3.17;;;;;;;;;;4923336;28;20130;-74
2023/02/08 17:35:32;;;;;;;6.60;2.83;;;;;;;;;;4939337;28;20046;-71
2023/02/08 17:38:32;;;;;;;7.63;2.50;;;;;;;;;;4866159;29;20048;-73
2023/02/08 17:56:03;;;;;;;8.18;2.95;;;;;;;;;;5050529;27;1473077;-75
2023/02/08 17:58:35;;;;;;;7.75;3.10;;;;;;;;;;5004962;28;20049;-71
2023/02/08 18:01:09;;;;;;;12.52;3.42;;;;;;;;;;4919841;28;20058;-75
2023/02/08 18:03:36;;;;;;;7.60;3.10;;;;;;;;;;4941050;28;20050;-70
2023/02/08 18:06:05;;;;;;;7.40;3.15;;;;;;;;;;4971191;28;20066;-70
2023/02/08 18:13:58;;;;;;;7.50;3.15;;;;;;;;;;4955844;28;20472;-75
2023/02/08 18:21:55;;;;;;;6.57;2.97;;;;;;;;;;5017467;27;20426;-74
2023/02/08 18:24:25;;;;;;;8.25;3.53;;;;;;;;;;4981063;28;20144;-76
2023/02/08 18:26:54;;;;;;;6.83;3.40;;;;;;;;;;4973063;28;20045;-75
2023/02/08 18:34:54;;;;;;;13.05;3.45;;;;;;;;;;5014145;27;20415;-76
2023/02/08 18:37:29;;;;;;;12.07;3.70;;;;;;;;;;4896689;29;20071;-71
2023/02/08 18:39:56;;;;;;;8.88;3.28;;;;;;;;;;4870762;28;20050;-77
2023/02/08 18:42:26;;;;;;;8.88;3.50;;;;;;;;;;4916816;28;20055;-74
2023/02/08 18:50:18;;;;;;;9.85;3.30;;;;;;;;;;4965173;27;20554;-69
2023/02/08 18:52:51;;;;;;;9.38;3.70;;;;;;;;;;4959973;28;20046;-70
2023/02/08 18:55:21;;;;;;;10.73;3.65;;;;;;;;;;4925179;28;20076;-75
2023/02/08 18:58:02;;;;;;;7.50;3.22;;;;;;;;;;4902680;28;20067;-73
2023/02/08 19:13:06;;;;;;;8.88;3.70;;;;;;;;;;5064740;27;20418;-73
2023/02/08 19:15:37;;;;;;;8.30;3.50;;;;;;;;;;4990575;28;20049;-71
2023/02/08 19:18:07;;;;;;;7.88;3.10;;;;;;;;;;4950027;28;20054;-73
2023/02/08 19:20:38;;;;;;;7.65;3.35;;;;;;;;;;4942891;28;20049;-74
2023/02/08 19:23:09;;;;;;;8.38;3.60;;;;;;;;;;5012056;28;20128;-73
2023/02/08 19:25:37;;;;;;;8.82;3.70;;;;;;;;;;5002787;28;20045;-70
2023/02/08 19:28:05;;;;;;;9.52;3.88;;;;;;;;;;5006566;28;20050;-68
2023/02/08 19:30:32;;;;;;;11.68;3.70;;;;;;;;;;5011196;28;20057;-71
2023/02/08 19:32:59;;;;;;;9.85;3.85;;;;;;;;;;5028273;28;20049;-67
2023/02/08 19:35:30;;;;;;;9.43;3.80;;;;;;;;;;4978107;28;20064;-66
2023/02/08 19:37:57;;;;;;;12.40;4.22;;;;;;;;;;4999995;28;20056;-72
2023/02/08 19:40:23;;;;;;;11.13;4.50;;;;;;;;;;4957525;28;20060;-71
2023/02/08 19:42:50;;;;;;;9.27;4.38;;;;;;;;;;5001174;28;20058;-67
2023/02/08 19:45:26;;;;;;;13.50;4.43;;;;;;;;;;4974566;28;20049;-69
2023/02/08 19:47:53;;;;;;;12.80;4.30;;;;;;;;;;5029740;28;20190;-68
2023/02/08 19:50:24;;;;;;;10.07;4.00;;;;;;;;;;4986902;28;20269;-65
2023/02/08 19:52:52;;;;;;;9.63;3.97;;;;;;;;;;5000475;28;20068;-70
2023/02/08 19:55:21;;;;;;;9.40;4.03;;;;;;;;;;5021490;28;20045;-71
2023/02/08 19:57:49;;;;;;;13.35;5.10;;;;;;;;;;5006844;28;20194;-70
2023/02/08 20:00:20;;;;;;;10.18;4.50;;;;;;;;;;5001417;28;20162;-70
2023/02/08 20:02:47;;;;;;;11.95;4.47;;;;;;;;;;4933028;28;20055;-72
2023/02/08 20:05:14;;;;;;;14.18;5.32;;;;;;;;;;4969244;28;20050;-70
2023/02/08 20:07:40;;;;;;;11.63;4.55;;;;;;;;;;4962857;28;20061;-66
2023/02/08 20:10:10;;;;;;;11.90;4.85;;;;;;;;;;4956780;28;20186;-71
2023/02/08 20:12:36;;;;;;;11.23;4.57;;;;;;;;;;4957402;28;20097;-68
2023/02/08 20:15:03;;;;;;;13.65;5.70;;;;;;;;;;4992197;28;20078;-69
2023/02/08 20:17:40;;;;;;;17.77;5.47;;;;;;;;;;4967035;28;20125;-70
2023/02/08 20:20:09;;;;;;;12.95;5.60;;;;;;;;;;4991221;28;20049;-67
2023/02/08 20:22:36;;;;;;;12.73;5.47;;;;;;;;;;4957317;28;20111;-72
2023/02/08 20:25:05;;;;;;;15.68;5.60;;;;;;;;;;4931893;28;20054;-71
2023/02/08 20:27:33;;;;;;;16.02;5.93;;;;;;;;;;4933347;28;20057;-68
2023/02/08 20:30:00;;;;;;;12.98;5.38;;;;;;;;;;4980954;28;20077;-67
2023/02/08 20:32:40;;;;;;;14.52;5.85;;;;;;;;;;4986081;28;20045;-69
2023/02/08 20:35:09;;;;;;;13.50;5.07;;;;;;;;;;4998711;28;20130;-67
2023/02/08 20:37:40;;;;;;;13.02;5.32;;;;;;;;;;5003433;28;20057;-70
2023/02/08 20:40:10;;;;;;;12.55;5.68;;;;;;;;;;4956961;28;20140;-65
2023/02/08 20:42:36;;;;;;;13.82;5.43;;;;;;;;;;4938580;28;20092;-72
2023/02/08 20:45:03;;;;;;;14.68;4.97;;;;;;;;;;4953753;28;20062;-68
2023/02/08 20:47:32;;;;;;;14.20;5.30;;;;;;;;;;4946215;28;20053;-69
2023/02/08 20:50:04;;;;;;;15.10;5.75;;;;;;;;;;4958538;28;20057;-71
2023/02/08 20:52:49;;;;;;;12.13;5.38;;;;;;;;;;4933101;28;20153;-70
2023/02/08 20:55:18;;;;;;;12.85;5.90;;;;;;;;;;4934181;28;20059;-71
2023/02/08 20:57:47;;;;;;;16.98;6.28;;;;;;;;;;4939522;28;20053;-72
2023/02/08 21:00:14;;;;;;;15.23;6.20;;;;;;;;;;4969684;28;20056;-70
2023/02/08 21:02:41;;;;;;;14.07;5.53;;;;;;;;;;4893869;28;20147;-72
2023/02/08 21:05:11;;;;;;;16.33;6.00;;;;;;;;;;4886552;29;20053;-68
2023/02/08 21:07:40;;;;;;;17.17;6.07;;;;;;;;;;4902377;28;20073;-73
2023/02/08 21:10:11;;;;;;;15.40;6.53;;;;;;;;;;4976969;28;20057;-67
2023/02/08 21:12:38;;;;;;;16.65;6.43;;;;;;;;;;4951605;28;20053;-68
2023/02/08 21:15:08;;;;;;;13.82;6.38;;;;;;;;;;4988762;28;20063;-68
2023/02/08 21:17:34;;;;;;;15.32;5.95;;;;;;;;;;5016834;28;20048;-68
2023/02/08 21:20:07;;;;;;;17.05;6.10;;;;;;;;;;4956130;28;20066;-66
2023/02/08 21:22:41;;;;;;;15.60;5.53;;;;;;;;;;4952493;28;20478;-65
2023/02/08 21:25:10;;;;;;;15.55;6.35;;;;;;;;;;4966094;28;20050;-74
2023/02/08 21:27:37;;;;;;;14.20;5.70;;;;;;;;;;4989722;28;20049;-71
2023/02/08 21:30:07;;;;;;;11.10;4.85;;;;;;;;;;5010254;28;20061;-64